ルクソール の空港の天気 - METARとTAF

ルクソール国際空港 ( HELX / LXR ) - エジプト ルクソール
飛行場実況気象(Metar)
観測時間10/16 09:00 EET (10/16 07:00 UTC)
風向・風速西南西 2m/s
視程6000m
天気現象
全天の8割程度の雲 雲底高度 910m
気温29℃
湿度58%
気圧1013hPa
METARHELX 160700Z 25004KT 6000 BKN030 29/20 Q1013 NOSIG
過去の天気等 Google飛行場航空写真 Wunderground天気予報

過去48時間のMETAR

飛行場予報(TAF)
発表時間: 10/16 07:00 EET (10/16 05:00 UTC)
予報対象時間: 16日8時 EET ~ 17日14時 EET
風向・風速北西 4m/s
視程10km以上
なし
16日8時 EET ~ 16日11時 EET に一時的に
視程4000m
天気現象煙霧
なし
TAF HELX 160500Z 1606/1712 32008KT CAVOK
TEMPO 1606/1609 4000 HZ NSC